Time;durP1;ratioP1;P1;durP2;ratioP2;P2;SDS_P1;SDS_P2;PMS_P1;PMS_P2;Temp;Humidity;BMP_temperature;BMP_pressure;BME280_temperature;BME280_humidity;BME280_pressure;Samples;Min_cycle;Max_cycle;Signal;HPM_P1;HPM_P2
2021/05/06 00:33:32;;;;;;;1.20;1.07;;;;;;;37.71;26.62;161126.34;1598075;88;22381;-89
2021/05/06 00:36:05;;;;;;;2.98;1.07;;;;;;;37.89;26.55;161175.97;1606333;88;21242;-90
2021/05/06 00:38:50;;;;;;;1.75;1.02;;;;;;;37.78;26.56;161146.45;1587067;89;21276;-90
2021/05/06 00:58:09;;;;;;;3.08;1.17;;;;;;;37.48;26.77;161066.06;1568157;87;21569;-88
2021/05/06 01:06:01;;;;;;;4.10;1.07;;;;;;;37.43;26.84;161051.34;1575234;88;21374;-86
2021/05/06 01:08:33;;;;;;;1.70;1.02;;;;;;;37.43;26.84;161051.34;1595018;88;21322;-89
2021/05/06 01:13:45;;;;;;;2.00;1.15;;;;;;;37.46;26.80;161060.70;1579241;89;21304;-90
2021/05/06 01:16:18;;;;;;;1.75;1.05;;;;;;;37.44;26.80;161054.02;1565263;91;21360;-88
2021/05/06 01:20:01;;;;;;;1.65;1.32;;;;;;;37.38;26.83;161039.28;1595410;89;21421;-89
2021/05/06 01:22:34;;;;;;;3.05;1.37;;;;;;;37.42;26.82;161048.66;1610111;89;21215;-90
2021/05/06 01:25:08;;;;;;;3.25;1.10;;;;;;;37.43;26.78;161052.70;1601638;88;21388;-90
2021/05/06 01:33:17;;;;;;;1.15;0.90;;;;;;;37.72;26.84;161129.03;1608925;88;21394;-89
2021/05/06 01:35:56;;;;;;;3.50;1.00;;;;;;;37.25;26.87;161004.41;1587707;89;21190;-89
2021/05/06 01:41:06;;;;;;;2.45;0.72;;;;;;;37.19;26.89;160987.00;1601892;89;21404;-90
2021/05/06 01:57:37;;;;;;;1.37;1.03;;;;;;;37.20;26.81;160991.06;1614012;88;21361;-89
2021/05/06 02:00:30;;;;;;;2.15;0.90;;;;;;;37.14;26.85;160973.66;1623594;87;21246;-88
2021/05/06 02:03:04;;;;;;;2.62;1.10;;;;;;;37.10;26.88;160962.92;1619277;87;21433;-89
2021/05/06 02:05:39;;;;;;;2.85;1.20;;;;;;;37.03;26.92;160942.83;1617443;87;21356;-88
2021/05/06 02:08:12;;;;;;;2.02;0.95;;;;;;;37.03;26.94;160945.52;1617228;87;21396;-89
2021/05/06 02:10:50;;;;;;;1.70;1.05;;;;;;;37.01;26.94;160937.47;1607922;88;21854;-88
2021/05/06 02:13:24;;;;;;;1.40;1.10;;;;;;;36.96;26.99;160924.11;1590449;88;21756;-88
2021/05/06 02:16:01;;;;;;;2.42;1.00;;;;;;;36.91;27.02;160910.70;1599654;88;21238;-90
2021/05/06 02:18:36;;;;;;;1.40;1.07;;;;;;;36.87;27.06;160899.92;1595326;88;21218;-89
2021/05/06 02:21:10;;;;;;;1.52;1.17;;;;;;;36.87;27.05;160899.92;1602397;88;21210;-89
2021/05/06 02:23:42;;;;;;;2.58;0.90;;;;;;;36.85;27.07;160894.61;1593693;88;21804;-90
2021/05/06 02:26:15;;;;;;;1.87;1.07;;;;;;;36.77;27.11;160874.52;1593050;88;21205;-90
2021/05/06 02:28:48;;;;;;;1.70;0.90;;;;;;;36.78;27.13;160877.20;1605705;88;21259;-90
2021/05/06 02:31:21;;;;;;;5.17;0.85;;;;;;;36.74;27.17;160866.48;1604809;88;21248;-89
2021/05/06 02:33:54;;;;;;;1.75;1.20;;;;;;;36.82;27.13;160886.56;1612929;87;21377;-89
2021/05/06 02:36:27;;;;;;;0.98;0.85;;;;;;;36.81;27.10;160883.89;1612221;88;21351;-89
2021/05/06 02:39:02;;;;;;;2.58;1.00;;;;;;;36.83;27.12;160889.25;1602614;88;21226;-89
2021/05/06 02:41:35;;;;;;;3.02;1.15;;;;;;;36.82;27.12;160887.88;1607384;89;21208;-87
2021/05/06 02:44:08;;;;;;;3.55;1.47;;;;;;;36.80;27.14;160882.56;1600988;88;21214;-88
2021/05/06 02:46:40;;;;;;;1.45;0.90;;;;;;;36.75;27.17;160867.84;1613939;88;21193;-87
2021/05/06 02:49:12;;;;;;;1.92;1.20;;;;;;;36.70;27.19;160854.44;1611014;88;21219;-87
2021/05/06 02:51:50;;;;;;;1.95;0.98;;;;;;;36.68;27.22;160850.44;1575708;90;21224;-88
2021/05/06 02:54:20;;;;;;;2.15;0.80;;;;;;;36.61;27.28;160830.36;1586863;90;21225;-88
2021/05/06 02:57:07;;;;;;;3.35;1.00;;;;;;;36.61;27.31;160831.67;1609828;89;21942;-88
2021/05/06 03:04:59;;;;;;;1.82;1.00;;;;;;;36.64;27.27;160839.72;1602740;88;21255;-89
2021/05/06 03:07:33;;;;;;;3.20;0.90;;;;;;;36.61;27.31;160830.36;1590008;89;21219;-88
2021/05/06 03:10:17;;;;;;;3.85;1.90;;;;;;;36.58;27.31;160822.31;1601549;89;21766;-88
2021/05/06 03:21:35;;;;;;;1.10;1.00;;;;;;;36.47;27.42;160792.88;1605176;87;21406;-90
2021/05/06 03:23:55;;;;;;;1.67;0.93;;;;;;;36.48;27.38;160796.88;1607525;87;22159;-89
2021/05/06 03:26:30;;;;;;;1.37;0.95;;;;;;;36.50;27.42;160802.23;1598244;87;21265;-89
2021/05/06 03:29:10;;;;;;;1.07;1.00;;;;;;;36.42;27.46;160779.41;1611199;89;21261;-89
2021/05/06 03:42:52;;;;;;;4.03;0.90;;;;;;;36.36;27.57;160764.69;1616029;87;21234;-89
2021/05/06 03:48:36;;;;;;;1.17;1.00;;;;;;;36.37;27.60;160767.38;1560195;90;21314;-91
2021/05/06 04:03:14;;;;;;;1.90;0.98;;;;;;;36.44;27.56;160784.78;1627123;86;21254;-89
2021/05/06 04:13:37;;;;;;;2.85;1.22;;;;;;;36.36;27.56;160763.39;1616383;87;21781;-84
2021/05/06 04:18:29;;;;;;;1.32;1.00;;;;;;;36.36;27.56;160764.69;1615685;86;21466;-86
2021/05/06 04:37:44;;;;;;;1.32;1.02;;;;;;;36.47;27.55;160792.88;1518018;93;21270;-90
2021/05/06 04:40:37;;;;;;;2.15;1.10;;;;;;;36.47;27.50;160794.19;1597912;87;21310;-89
2021/05/06 04:43:32;;;;;;;1.80;1.22;;;;;;;36.46;27.49;160790.19;1600124;88;21755;-84
2021/05/06 04:45:59;;;;;;;3.65;0.95;;;;;;;36.53;27.49;160808.91;1598049;88;21289;-84
2021/05/06 05:03:33;;;;;;;2.42;1.05;;;;;;;36.63;27.44;160835.72;1602168;88;21436;-87
2021/05/06 05:06:00;;;;;;;2.60;0.98;;;;;;;36.58;27.46;160823.62;1601973;88;21258;-87
2021/05/06 05:08:43;;;;;;;2.25;1.00;;;;;;;36.71;27.38;160858.44;1579031;89;21273;-88
2021/05/06 05:14:01;;;;;;;0.95;0.95;;;;;;;36.60;27.45;160827.67;1598187;88;21781;-86
2021/05/06 05:25:08;;;;;;;1.22;1.05;;;;;;;36.69;27.41;160851.75;1617986;86;21190;-83
2021/05/06 05:27:40;;;;;;;2.42;1.07;;;;;;;36.65;27.42;160841.03;1626282;88;21233;-85
2021/05/06 05:30:13;;;;;;;2.37;1.35;;;;;;;36.69;27.40;160851.75;1598323;89;21226;-85
2021/05/06 05:32:47;;;;;;;1.72;0.93;;;;;;;36.68;27.42;160849.08;1612195;88;21220;-85
2021/05/06 05:35:42;;;;;;;2.40;1.20;;;;;;;36.65;27.43;160842.39;1619122;87;21264;-85
2021/05/06 05:41:04;;;;;;;1.42;1.15;;;;;;;36.69;27.42;160853.08;1592385;88;21213;-85
2021/05/06 05:54:34;;;;;;;1.47;1.02;;;;;;;36.70;27.46;160855.75;1612552;89;21206;-84
2021/05/06 05:56:46;;;;;;;2.60;1.30;;;;;;;36.74;27.43;160866.48;1607852;88;21388;-84
2021/05/06 05:59:18;;;;;;;2.55;1.30;;;;;;;36.74;27.46;160865.16;1601173;88;21344;-84
2021/05/06 06:01:53;;;;;;;2.85;1.25;;;;;;;36.74;27.49;160866.48;1596748;88;21242;-84
2021/05/06 06:04:25;;;;;;;1.27;1.05;;;;;;;36.72;27.50;160859.80;1605238;88;21357;-84
2021/05/06 06:06:57;;;;;;;2.90;1.15;;;;;;;36.78;27.51;160877.20;1605552;88;21492;-84
2021/05/06 06:09:30;;;;;;;1.87;1.22;;;;;;;36.71;27.55;160857.13;1617262;88;21797;-84
2021/05/06 06:12:02;;;;;;;2.15;1.72;;;;;;;36.69;27.61;160851.75;1624494;88;21270;-84
2021/05/06 06:14:47;;;;;;;1.67;1.10;;;;;;;36.69;27.63;160853.08;1613532;88;21263;-84
2021/05/06 06:17:12;;;;;;;1.35;1.25;;;;;;;36.70;27.61;160855.75;1617418;87;21244;-84
2021/05/06 06:19:53;;;;;;;5.40;1.20;;;;;;;36.81;27.58;160883.89;1616991;87;21816;-85
2021/05/06 06:22:20;;;;;;;2.12;1.42;;;;;;;36.81;27.55;160885.20;1613349;88;21233;-84
2021/05/06 06:24:53;;;;;;;3.35;1.35;;;;;;;36.80;27.62;160881.20;1630312;87;21171;-85
2021/05/06 06:27:25;;;;;;;1.80;1.10;;;;;;;36.81;27.61;160883.89;1621765;88;21210;-85
2021/05/06 06:30:00;;;;;;;1.20;1.10;;;;;;;36.85;27.64;160894.61;1609240;88;21761;-85
2021/05/06 06:32:32;;;;;;;2.25;1.32;;;;;;;36.83;27.68;160889.25;1584863;90;21371;-84
2021/05/06 06:35:05;;;;;;;3.10;1.25;;;;;;;36.83;27.69;160889.25;1556300;91;21229;-84
2021/05/06 06:37:38;;;;;;;4.42;1.32;;;;;;;36.77;27.77;160874.52;1577076;91;21405;-84
2021/05/06 06:40:12;;;;;;;2.22;1.45;;;;;;;36.70;27.83;160855.75;1556240;91;21269;-85
2021/05/06 06:42:45;;;;;;;2.47;1.40;;;;;;;36.75;27.92;160867.84;1555539;92;21517;-85
2021/05/06 06:45:20;;;;;;;1.40;1.20;;;;;;;36.88;27.87;160902.59;1555453;92;21272;-85
2021/05/06 06:47:55;;;;;;;1.80;1.30;;;;;;;36.95;27.83;160922.75;1578363;89;21345;-85
2021/05/06 06:50:27;;;;;;;3.12;1.45;;;;;;;36.99;27.80;160932.09;1602520;88;21228;-85
2021/05/06 06:53:00;;;;;;;4.60;1.67;;;;;;;36.99;27.83;160933.47;1602283;89;21234;-84
2021/05/06 06:55:32;;;;;;;1.40;1.10;;;;;;;36.99;27.86;160933.47;1581375;91;21592;-84
2021/05/06 06:58:12;;;;;;;5.72;2.55;;;;;;;37.03;27.88;160942.83;1555203;91;21261;-84
2021/05/06 07:00:46;;;;;;;2.70;1.57;;;;;;;37.07;27.86;160956.25;1577012;91;21397;-84
2021/05/06 07:03:18;;;;;;;2.62;1.10;;;;;;;37.15;27.82;160977.64;1555449;92;21273;-84
2021/05/06 07:05:51;;;;;;;2.17;1.20;;;;;;;37.12;27.88;160968.28;1555430;91;21847;-84
2021/05/06 07:08:37;;;;;;;1.55;1.07;;;;;;;37.14;27.84;160974.97;1580601;89;21293;-84
2021/05/06 07:11:04;;;;;;;2.27;1.40;;;;;;;37.21;27.81;160993.69;1576931;89;21255;-85
2021/05/06 07:13:37;;;;;;;3.67;1.75;;;;;;;37.30;27.81;161016.47;1580460;89;21449;-84
2021/05/06 07:16:09;;;;;;;3.52;1.55;;;;;;;37.43;27.69;161051.34;1576112;90;21236;-84
2021/05/06 07:18:42;;;;;;;2.80;1.32;;;;;;;37.49;27.68;161068.75;1556246;92;21305;-84
2021/05/06 07:21:14;;;;;;;4.97;1.40;;;;;;;37.47;27.69;161062.06;1576799;91;21234;-85
2021/05/06 07:23:46;;;;;;;2.98;1.32;;;;;;;37.46;27.74;161060.70;1578457;89;21268;-85
2021/05/06 07:26:23;;;;;;;6.45;2.15;;;;;;;37.40;27.81;161044.66;1576085;90;21397;-85
2021/05/06 07:28:56;;;;;;;2.37;1.70;;;;;;;37.34;27.87;161027.19;1590038;89;21217;-84
2021/05/06 07:31:30;;;;;;;2.52;1.60;;;;;;;37.38;27.89;161037.97;1593020;88;21232;-84
2021/05/06 07:34:04;;;;;;;2.45;1.35;;;;;;;37.50;27.89;161070.13;1583789;89;21289;-85
2021/05/06 07:36:38;;;;;;;4.47;1.70;;;;;;;37.50;28.13;161070.13;1582237;89;21324;-84
2021/05/06 07:39:12;;;;;;;2.02;1.60;;;;;;;37.55;28.21;161083.47;1584103;89;21348;-84
2021/05/06 07:41:46;;;;;;;2.33;1.52;;;;;;;37.64;28.30;161107.58;1582246;89;21958;-84
2021/05/06 07:44:20;;;;;;;3.75;1.62;;;;;;;37.78;28.31;161146.45;1560521;90;21217;-84
2021/05/06 07:47:08;;;;;;;3.08;1.65;;;;;;;37.55;28.51;161083.47;1592952;89;21290;-85
2021/05/06 07:49:30;;;;;;;1.30;1.20;;;;;;;37.56;28.56;161087.48;1601202;89;21253;-84
2021/05/06 07:52:04;;;;;;;2.83;1.40;;;;;;;37.53;28.60;161078.11;1594334;89;21590;-84
2021/05/06 07:54:38;;;;;;;1.60;1.30;;;;;;;37.49;28.64;161068.75;1592218;89;21246;-84
2021/05/06 07:57:13;;;;;;;1.90;1.25;;;;;;;37.51;28.66;161074.11;1610594;88;21286;-84
2021/05/06 07:59:46;;;;;;;1.70;1.47;;;;;;;37.60;28.60;161098.20;1601964;89;21210;-84
2021/05/06 08:02:18;;;;;;;1.37;1.22;;;;;;;37.62;28.54;161102.20;1604791;89;21266;-84
2021/05/06 08:04:51;;;;;;;1.65;1.10;;;;;;;37.60;28.52;161096.89;1605451;87;21583;-84
2021/05/06 08:07:24;;;;;;;2.08;0.93;;;;;;;37.59;28.47;161094.20;1596264;88;21195;-84
2021/05/06 08:09:56;;;;;;;1.05;0.95;;;;;;;37.76;28.32;161139.72;1583114;89;21781;-84
2021/05/06 08:12:28;;;;;;;1.77;1.07;;;;;;;37.82;28.26;161155.88;1581383;91;21261;-84
2021/05/06 08:15:02;;;;;;;1.62;1.10;;;;;;;37.78;28.38;161146.45;1595644;90;21264;-84
2021/05/06 08:17:37;;;;;;;0.70;0.70;;;;;;;37.83;28.39;161158.56;1599813;89;21401;-85
2021/05/06 08:20:12;;;;;;;2.45;0.93;;;;;;;37.68;28.58;161118.30;1602269;89;21265;-84
2021/05/06 08:22:45;;;;;;;0.60;0.60;;;;;;;37.71;28.61;161126.34;1602193;88;21250;-84
2021/05/06 08:25:19;;;;;;;1.52;0.90;;;;;;;37.78;28.58;161145.09;1571867;91;21423;-84
2021/05/06 08:27:51;;;;;;;0.78;0.78;;;;;;;37.93;28.39;161185.34;1576245;91;21260;-84
2021/05/06 08:30:23;;;;;;;2.50;1.17;;;;;;;37.81;28.43;161153.19;1612151;89;21851;-84
2021/05/06 08:32:56;;;;;;;1.45;0.60;;;;;;;37.73;28.45;161131.72;1612104;87;21324;-84
2021/05/06 08:35:29;;;;;;;0.80;0.60;;;;;;;37.89;28.29;161174.59;1581794;91;21272;-84
2021/05/06 08:38:01;;;;;;;0.80;0.80;;;;;;;37.86;28.26;161167.92;1581862;91;21362;-84
2021/05/06 08:40:36;;;;;;;2.52;0.90;;;;;;;37.88;28.21;161171.92;1618282;88;21254;-84
2021/05/06 08:43:11;;;;;;;1.02;0.70;;;;;;;38.12;27.98;161238.91;1592222;87;21257;-84
2021/05/06 08:45:48;;;;;;;0.65;0.50;;;;;;;38.10;27.90;161233.53;1607783;88;21307;-84
2021/05/06 08:48:18;;;;;;;0.85;0.50;;;;;;;38.09;27.87;161230.86;1607488;88;21728;-83
2021/05/06 08:50:51;;;;;;;1.00;0.70;;;;;;;38.13;27.80;161241.59;1607196;89;21269;-84
2021/05/06 08:53:23;;;;;;;1.10;0.65;;;;;;;38.10;27.75;161233.53;1584381;89;21804;-85
2021/05/06 08:55:57;;;;;;;0.60;0.50;;;;;;;38.15;27.70;161245.59;1558776;92;21974;-85
2021/05/06 08:58:29;;;;;;;1.67;0.70;;;;;;;38.13;27.67;161241.59;1575654;91;21294;-85
2021/05/06 09:01:01;;;;;;;1.47;0.60;;;;;;;38.18;27.61;161255.02;1584425;90;21395;-85
2021/05/06 09:03:33;;;;;;;0.85;0.57;;;;;;;38.21;27.57;161261.69;1594600;89;21387;-85
2021/05/06 09:06:23;;;;;;;0.45;0.45;;;;;;;38.16;27.57;161249.64;1611069;89;21195;-85
2021/05/06 09:09:01;;;;;;;0.55;0.55;;;;;;;38.14;27.55;161244.28;1585052;89;21265;-85
2021/05/06 09:11:43;;;;;;;0.88;0.60;;;;;;;38.14;27.55;161244.28;1606919;89;21333;-85
2021/05/06 09:14:11;;;;;;;1.45;0.72;;;;;;;38.11;27.58;161236.22;1613480;87;21242;-86
2021/05/06 09:16:44;;;;;;;2.22;0.53;;;;;;;38.10;27.57;161232.22;1609118;89;21267;-86
2021/05/06 09:19:19;;;;;;;1.12;0.45;;;;;;;38.06;27.60;161221.50;1607410;88;21230;-85
2021/05/06 09:21:52;;;;;;;1.32;0.60;;;;;;;38.02;27.61;161210.81;1607248;89;21239;-86
2021/05/06 09:24:29;;;;;;;1.30;0.70;;;;;;;37.91;27.73;161179.97;1588068;89;21324;-87
2021/05/06 09:27:04;;;;;;;0.57;0.50;;;;;;;37.97;27.69;161197.39;1584606;90;21229;-86
2021/05/06 09:29:38;;;;;;;1.35;0.70;;;;;;;38.08;27.58;161226.86;1585744;89;21260;-86
2021/05/06 09:32:23;;;;;;;2.87;1.57;;;;;;;38.16;27.57;161248.28;1619167;88;21406;-86
2021/05/06 09:34:57;;;;;;;1.15;0.70;;;;;;;38.17;27.58;161250.97;1606275;88;21866;-86
2021/05/06 09:37:32;;;;;;;0.72;0.50;;;;;;;38.20;27.57;161260.33;1581148;89;21418;-86
2021/05/06 09:40:07;;;;;;;2.00;0.65;;;;;;;38.25;27.51;161273.81;1606258;89;21388;-86
2021/05/06 09:42:48;;;;;;;1.55;0.75;;;;;;;38.28;27.49;161280.48;1580335;91;21736;-86
2021/05/06 09:45:26;;;;;;;0.90;0.57;;;;;;;38.30;27.46;161287.22;1606192;89;21249;-86
2021/05/06 09:48:10;;;;;;;;;;;;;;;38.34;27.41;161297.91;1608699;89;21364;-85
2021/05/06 09:50:45;;;;;;;0.72;0.50;;;;;;;38.33;27.40;161293.91;1606217;89;20270;-85
2021/05/06 09:53:21;;;;;;;1.00;0.90;;;;;;;38.38;27.33;161307.28;1580482;91;21277;-85
2021/05/06 09:56:03;;;;;;;0.80;0.60;;;;;;;38.42;27.31;161318.02;1606180;88;21784;-85
2021/05/06 09:58:36;;;;;;;1.95;0.55;;;;;;;38.35;27.30;161300.59;1580475;89;21504;-85
2021/05/06 10:01:12;;;;;;;1.20;0.62;;;;;;;38.37;27.26;161305.97;1576543;89;21250;-85
2021/05/06 10:03:44;;;;;;;1.07;0.65;;;;;;;38.43;27.17;161322.02;1608295;87;21245;-85
2021/05/06 10:06:21;;;;;;;0.93;0.42;;;;;;;38.53;27.10;161347.48;1606285;88;21877;-85
2021/05/06 10:08:53;;;;;;;1.25;0.50;;;;;;;38.42;27.13;161319.38;1626737;86;21375;-85
2021/05/06 10:11:26;;;;;;;1.35;0.70;;;;;;;38.30;27.23;161285.86;1638551;86;21967;-85
2021/05/06 10:13:59;;;;;;;0.68;0.50;;;;;;;38.29;27.24;161283.17;1613236;87;21190;-85
2021/05/06 10:16:32;;;;;;;0.88;0.42;;;;;;;38.32;27.19;161292.53;1607718;88;21264;-85
2021/05/06 10:19:04;;;;;;;0.95;0.78;;;;;;;38.34;27.22;161296.59;1607489;89;21356;-85
2021/05/06 10:21:37;;;;;;;0.88;0.40;;;;;;;38.42;27.13;161319.38;1607590;89;21206;-85
2021/05/06 10:24:10;;;;;;;2.02;0.90;;;;;;;38.41;27.13;161316.70;1607561;89;21221;-85
2021/05/06 10:26:42;;;;;;;2.75;0.70;;;;;;;38.43;27.13;161322.02;1636061;87;21371;-85
2021/05/06 10:29:16;;;;;;;0.70;0.60;;;;;;;38.45;27.09;161327.37;1631370;87;21361;-85
2021/05/06 10:31:49;;;;;;;1.62;0.98;;;;;;;38.48;27.06;161335.44;1606571;88;21258;-85
2021/05/06 10:34:22;;;;;;;3.00;0.88;;;;;;;38.54;26.99;161350.17;1600945;89;21392;-84
2021/05/06 10:36:54;;;;;;;1.80;0.80;;;;;;;38.59;26.92;161364.91;1613983;87;21923;-84
2021/05/06 10:39:40;;;;;;;0.90;0.78;;;;;;;38.55;26.81;161352.86;1613829;87;21278;-84
2021/05/06 10:42:31;;;;;;;1.02;0.75;;;;;;;38.60;26.72;161367.59;1645599;86;21224;-84
2021/05/06 10:45:30;;;;;;;2.55;0.80;;;;;;;38.63;26.52;161375.66;1606819;88;21409;-84
2021/05/06 10:48:03;;;;;;;2.60;0.90;;;;;;;38.62;26.43;161372.97;1622216;87;21284;-84
2021/05/06 10:50:42;;;;;;;1.67;1.00;;;;;;;38.66;26.26;161383.70;1606298;88;21386;-84
2021/05/06 10:53:27;;;;;;;2.62;0.80;;;;;;;38.61;26.21;161368.92;1606251;88;21244;-84
2021/05/06 10:56:01;;;;;;;3.08;0.72;;;;;;;38.64;26.12;161378.34;1606362;88;21309;-84
2021/05/06 10:58:34;;;;;;;1.17;0.80;;;;;;;38.69;26.00;161390.45;1608578;87;21350;-85
2021/05/06 11:01:18;;;;;;;0.62;0.62;;;;;;;38.72;25.94;161399.81;1606354;87;21229;-84
2021/05/06 11:04:07;;;;;;;2.17;0.80;;;;;;;38.68;25.92;161389.08;1589290;89;21259;-84
2021/05/06 11:06:41;;;;;;;0.85;0.70;;;;;;;38.71;25.83;161395.81;1557364;92;21356;-84
2021/05/06 11:09:39;;;;;;;5.28;2.55;;;;;;;38.76;25.72;161410.56;1582511;91;21319;-84
2021/05/06 11:12:19;;;;;;;1.57;0.88;;;;;;;38.84;25.61;161430.62;1582224;89;21263;-84
2021/05/06 11:15:06;;;;;;;2.98;1.00;;;;;;;38.70;25.67;161394.45;1560471;91;21228;-82
2021/05/06 11:17:42;;;;;;;1.15;0.90;;;;;;;38.69;25.65;161391.77;1606212;89;21397;-82
2021/05/06 11:20:20;;;;;;;1.50;0.85;;;;;;;38.59;25.70;161363.59;1608275;86;21888;-83
2021/05/06 11:22:56;;;;;;;2.75;1.10;;;;;;;38.62;25.63;161372.97;1610462;89;21282;-82
2021/05/06 11:25:40;;;;;;;1.00;0.90;;;;;;;38.65;25.57;161381.08;1612010;88;21343;-83
2021/05/06 11:28:26;;;;;;;0.78;0.60;;;;;;;38.66;25.55;161383.70;1608296;89;21217;-83
2021/05/06 11:31:00;;;;;;;0.80;0.80;;;;;;;38.71;25.52;161397.13;1611972;87;21954;-83
2021/05/06 11:33:33;;;;;;;1.22;1.00;;;;;;;38.87;25.39;161440.05;1602332;88;21270;-82
2021/05/06 11:36:20;;;;;;;0.82;0.80;;;;;;;38.97;25.27;161466.84;1615415;86;21309;-83
2021/05/06 11:38:55;;;;;;;1.98;1.30;;;;;;;38.95;25.20;161462.78;1625446;88;21174;-83
2021/05/06 11:41:33;;;;;;;0.98;0.82;;;;;;;39.06;25.07;161492.28;1620090;88;21230;-83
2021/05/06 11:44:07;;;;;;;2.92;1.00;;;;;;;39.02;24.99;161481.59;1565917;91;21263;-83
2021/05/06 11:46:41;;;;;;;1.80;0.93;;;;;;;39.07;24.91;161493.64;1594633;88;21466;-83
2021/05/06 11:49:17;;;;;;;2.25;0.70;;;;;;;39.08;24.87;161497.70;1596075;90;21466;-83
2021/05/06 11:51:48;;;;;;;1.02;0.70;;;;;;;39.11;24.85;161504.44;1618616;88;21243;-83
2021/05/06 11:54:27;;;;;;;1.00;0.82;;;;;;;39.12;24.82;161508.44;1620412;88;21760;-82
2021/05/06 11:57:02;;;;;;;0.90;0.90;;;;;;;39.12;24.77;161508.44;1620408;88;21301;-83
2021/05/06 11:59:34;;;;;;;0.95;0.85;;;;;;;39.16;24.73;161517.81;1594319;90;21288;-81
2021/05/06 12:02:07;;;;;;;3.75;1.57;;;;;;;39.20;24.56;161528.56;1603663;88;21594;-84
2021/05/06 12:04:41;;;;;;;0.95;0.80;;;;;;;39.20;24.50;161529.88;1606935;88;21210;-84
2021/05/06 12:07:16;;;;;;;1.45;0.80;;;;;;;39.23;24.46;161536.62;1599522;88;21737;-84
2021/05/06 12:09:50;;;;;;;1.07;0.72;;;;;;;39.25;24.45;161541.94;1602886;89;21730;-82
2021/05/06 12:12:25;;;;;;;0.90;0.80;;;;;;;39.31;24.30;161558.06;1610765;88;21265;-81
2021/05/06 12:14:59;;;;;;;2.65;0.70;;;;;;;39.40;24.19;161583.55;1606279;86;21326;-83
2021/05/06 12:17:32;;;;;;;1.35;0.80;;;;;;;39.45;24.07;161596.92;1581110;89;21664;-83
2021/05/06 12:20:05;;;;;;;0.57;0.57;;;;;;;39.49;24.05;161607.67;1571358;91;21298;-84
2021/05/06 12:22:37;;;;;;;1.20;0.70;;;;;;;39.55;23.99;161623.78;1619980;87;21357;-85
2021/05/06 12:25:10;;;;;;;1.00;0.78;;;;;;;39.64;23.88;161646.59;1609092;88;21204;-85
2021/05/06 12:27:44;;;;;;;2.05;0.62;;;;;;;39.68;23.84;161657.34;1604703;87;21366;-84
2021/05/06 12:30:17;;;;;;;0.90;0.60;;;;;;;39.80;23.76;161689.53;1607612;88;21317;-84
2021/05/06 12:32:50;;;;;;;0.80;0.68;;;;;;;39.80;23.73;161689.53;1591769;88;21456;-85
2021/05/06 12:35:22;;;;;;;1.17;0.70;;;;;;;39.81;23.68;161692.22;1613992;87;21240;-86
2021/05/06 12:37:54;;;;;;;0.82;0.60;;;;;;;39.84;23.54;161700.22;1619110;87;21252;-85
2021/05/06 12:40:29;;;;;;;0.98;0.70;;;;;;;39.84;23.49;161701.59;1638514;86;21328;-85
2021/05/06 12:43:03;;;;;;;0.78;0.78;;;;;;;39.86;23.54;161705.59;1638815;86;21221;-86
2021/05/06 12:45:35;;;;;;;0.60;0.60;;;;;;;39.84;23.48;161701.59;1614324;88;21274;-85
2021/05/06 12:48:08;;;;;;;1.05;0.65;;;;;;;39.88;23.46;161710.97;1635683;85;21257;-86
2021/05/06 12:50:41;;;;;;;0.78;0.65;;;;;;;39.92;23.36;161723.09;1637349;86;21224;-85
2021/05/06 12:53:18;;;;;;;1.37;0.50;;;;;;;39.92;23.32;161723.09;1632796;87;21224;-85
2021/05/06 12:55:48;;;;;;;1.02;0.70;;;;;;;39.96;23.27;161735.16;1622772;86;21348;-83
2021/05/06 12:58:26;;;;;;;0.98;0.70;;;;;;;40.02;23.26;161751.28;1625316;87;21260;-85
2021/05/06 13:00:59;;;;;;;0.90;0.70;;;;;;;40.09;23.21;161770.03;1638477;87;21317;-85
2021/05/06 13:03:45;;;;;;;1.70;0.80;;;;;;;40.13;23.22;161780.78;1609437;87;21239;-85
2021/05/06 13:10:43;;;;;;;0.57;0.57;;;;;;;40.11;23.20;161775.41;1601847;87;21290;-85
2021/05/06 13:13:50;;;;;;;0.62;0.50;;;;;;;40.19;23.13;161795.55;1610131;87;21329;-86
2021/05/06 13:16:45;;;;;;;1.40;0.60;;;;;;;40.26;22.99;161815.67;1613230;87;21233;-84
2021/05/06 13:19:24;;;;;;;1.52;0.75;;;;;;;40.24;23.05;161808.94;1621326;87;21220;-83
2021/05/06 13:21:56;;;;;;;1.00;0.60;;;;;;;40.27;23.03;161817.00;1636126;86;21321;-84
2021/05/06 13:24:45;;;;;;;0.98;0.62;;;;;;;40.12;23.06;161778.09;1621871;87;21270;-84
2021/05/06 13:27:24;;;;;;;1.00;0.90;;;;;;;40.14;22.94;161782.11;1578475;90;21261;-83
2021/05/06 13:30:01;;;;;;;1.20;0.60;;;;;;;40.29;22.83;161823.69;1574719;89;21274;-84
2021/05/06 13:32:35;;;;;;;1.60;0.78;;;;;;;40.46;22.74;161869.37;1625258;87;21251;-84
2021/05/06 13:35:16;;;;;;;1.80;0.70;;;;;;;40.47;22.75;161870.69;1612379;87;21456;-85
2021/05/06 13:37:48;;;;;;;1.95;1.02;;;;;;;40.51;22.74;161882.77;1615518;88;21186;-85
2021/05/06 13:40:21;;;;;;;1.10;0.62;;;;;;;40.53;22.73;161888.14;1626447;88;21348;-85
2021/05/06 13:42:55;;;;;;;0.68;0.60;;;;;;;40.66;22.68;161921.72;1591410;89;21318;-85
2021/05/06 13:45:27;;;;;;;0.82;0.50;;;;;;;40.59;22.75;161904.28;1555405;89;21246;-85
2021/05/06 13:47:59;;;;;;;0.60;0.60;;;;;;;40.54;22.81;161890.83;1542587;91;22121;-85
2021/05/06 13:50:33;;;;;;;0.80;0.65;;;;;;;40.72;22.80;161939.16;1562269;92;21426;-86
2021/05/06 13:53:07;;;;;;;1.07;0.80;;;;;;;40.74;22.80;161943.17;1563361;89;21274;-87
2021/05/06 13:55:40;;;;;;;1.72;0.88;;;;;;;40.81;22.62;161962.00;1564451;89;21340;-84
2021/05/06 13:58:14;;;;;;;1.55;0.90;;;;;;;40.83;22.62;161967.37;1607286;88;21236;-86
2021/05/06 14:00:46;;;;;;;1.55;0.80;;;;;;;40.83;22.71;161967.37;1569879;90;21345;-87
2021/05/06 14:03:18;;;;;;;1.62;0.90;;;;;;;40.79;22.66;161957.98;1587075;90;21775;-86
2021/05/06 14:05:51;;;;;;;1.75;0.72;;;;;;;40.86;22.70;161975.44;1591244;88;21172;-86
2021/05/06 14:08:25;;;;;;;1.82;0.80;;;;;;;40.97;22.67;162006.33;1580636;89;21303;-85
2021/05/06 14:10:57;;;;;;;0.88;0.80;;;;;;;41.07;22.58;162033.17;1581535;90;21256;-86
2021/05/06 14:13:56;;;;;;;3.27;0.80;;;;;;;40.96;22.61;162003.64;1593329;89;21282;-85
2021/05/06 14:16:48;;;;;;;2.25;0.60;;;;;;;41.04;22.50;162026.42;1598461;86;21244;-86
2021/05/06 14:19:28;;;;;;;1.45;0.82;;;;;;;41.17;22.33;162061.38;1578196;89;22199;-85
2021/05/06 14:22:13;;;;;;;1.15;0.68;;;;;;;41.11;22.36;162043.88;1581838;88;21219;-85
2021/05/06 14:24:59;;;;;;;1.02;0.90;;;;;;;41.17;22.27;162060.06;1609004;87;21222;-84
2021/05/06 14:27:57;;;;;;;1.50;0.90;;;;;;;41.19;22.34;162065.44;1616911;86;21454;-85
2021/05/06 14:30:36;;;;;;;0.75;0.65;;;;;;;41.19;22.30;162066.75;1613548;87;21271;-86
2021/05/06 14:33:08;;;;;;;1.05;0.82;;;;;;;41.24;22.34;162078.83;1613986;87;21243;-87
2021/05/06 14:35:41;;;;;;;1.92;0.70;;;;;;;41.26;22.35;162084.20;1636677;86;21820;-86
2021/05/06 14:38:13;;;;;;;1.00;0.80;;;;;;;41.21;22.25;162070.75;1630265;87;21225;-85
2021/05/06 14:44:15;;;;;;;0.85;0.75;;;;;;;41.20;22.23;162069.44;1602229;88;21428;-85
2021/05/06 14:46:47;;;;;;;3.65;0.80;;;;;;;41.28;22.18;162089.58;1591040;88;21258;-83
2021/05/06 14:49:20;;;;;;;20.15;12.10;;;;;;;41.32;22.01;162101.66;1594081;88;21285;-86
2021/05/06 14:51:53;;;;;;;20.50;12.75;;;;;;;41.20;21.36;162068.13;1591469;88;21250;-86
2021/05/06 14:54:25;;;;;;;20.57;13.68;;;;;;;41.14;21.28;162051.94;1589099;86;21242;-86
2021/05/06 14:56:58;;;;;;;16.57;10.70;;;;;;;41.07;21.30;162034.48;1605197;88;21334;-86
2021/05/06 14:59:38;;;;;;;15.10;9.70;;;;;;;41.04;21.35;162026.42;1602172;88;22377;-86
2021/05/06 15:02:11;;;;;;;17.95;10.15;;;;;;;41.11;21.42;162043.88;1604512;88;21614;-85
2021/05/06 15:04:44;;;;;;;17.80;9.70;;;;;;;41.06;21.53;162030.48;1603351;88;21337;-86
2021/05/06 15:07:44;;;;;;;12.90;8.43;;;;;;;40.90;21.63;161987.50;1631131;86;21247;-84
2021/05/06 15:10:32;;;;;;;10.38;7.92;;;;;;;40.91;21.69;161990.19;1589837;88;21504;-86
2021/05/06 15:13:04;;;;;;;13.65;7.80;;;;;;;40.97;21.68;162006.33;1594569;88;21206;-86
2021/05/06 15:15:38;;;;;;;9.85;6.70;;;;;;;41.02;21.61;162019.72;1593887;88;21721;-88
2021/05/06 15:18:10;;;;;;;13.65;6.58;;;;;;;40.99;21.62;162011.66;1593551;88;21245;-85